sensor_id;sensor_type;location;lat;lon;timestamp;temperature;humidity
40454;DHT22;26160;51.858;4.398;2022-07-06T00:01:20;15.20;99.90
40454;DHT22;26160;51.858;4.398;2022-07-06T00:03:46;15.20;99.90
40454;DHT22;26160;51.858;4.398;2022-07-06T00:06:13;15.20;99.90
40454;DHT22;26160;51.858;4.398;2022-07-06T00:08:39;15.20;99.90
40454;DHT22;26160;51.858;4.398;2022-07-06T00:11:05;15.20;99.90
40454;DHT22;26160;51.858;4.398;2022-07-06T00:13:31;15.20;99.90
40454;DHT22;26160;51.858;4.398;2022-07-06T00:15:57;15.20;99.90
40454;DHT22;26160;51.858;4.398;2022-07-06T00:18:24;15.30;99.90
40454;DHT22;26160;51.858;4.398;2022-07-06T00:20:50;15.30;99.90
40454;DHT22;26160;51.858;4.398;2022-07-06T00:23:16;15.20;99.90
40454;DHT22;26160;51.858;4.398;2022-07-06T00:25:42;15.20;99.90
40454;DHT22;26160;51.858;4.398;2022-07-06T00:28:08;15.20;99.90
40454;DHT22;26160;51.858;4.398;2022-07-06T00:30:34;15.20;99.90
40454;DHT22;26160;51.858;4.398;2022-07-06T00:33:00;15.20;99.90
40454;DHT22;26160;51.858;4.398;2022-07-06T00:35:26;15.20;99.90
40454;DHT22;26160;51.858;4.398;2022-07-06T00:37:53;15.10;99.90
40454;DHT22;26160;51.858;4.398;2022-07-06T00:40:19;15.10;99.90
40454;DHT22;26160;51.858;4.398;2022-07-06T00:42:47;15.10;99.90
40454;DHT22;26160;51.858;4.398;2022-07-06T00:45:15;15.10;99.90
40454;DHT22;26160;51.858;4.398;2022-07-06T00:47:42;15.10;99.90
40454;DHT22;26160;51.858;4.398;2022-07-06T00:50:10;15.10;99.90
40454;DHT22;26160;51.858;4.398;2022-07-06T00:53:03;15.10;99.90
40454;DHT22;26160;51.858;4.398;2022-07-06T00:55:33;15.00;99.90
40454;DHT22;26160;51.858;4.398;2022-07-06T00:58:03;15.00;99.90
40454;DHT22;26160;51.858;4.398;2022-07-06T01:00:30;15.00;99.90
40454;DHT22;26160;51.858;4.398;2022-07-06T01:02:57;14.90;99.90
40454;DHT22;26160;51.858;4.398;2022-07-06T01:05:23;15.00;99.90
40454;DHT22;26160;51.858;4.398;2022-07-06T01:07:51;14.90;99.90
40454;DHT22;26160;51.858;4.398;2022-07-06T01:10:18;15.00;99.90
40454;DHT22;26160;51.858;4.398;2022-07-06T01:12:46;14.90;99.90
40454;DHT22;26160;51.858;4.398;2022-07-06T01:15:14;14.90;99.90
40454;DHT22;26160;51.858;4.398;2022-07-06T01:17:41;15.00;99.90
40454;DHT22;26160;51.858;4.398;2022-07-06T01:20:16;15.00;99.90
40454;DHT22;26160;51.858;4.398;2022-07-06T01:22:44;15.00;99.90
40454;DHT22;26160;51.858;4.398;2022-07-06T01:25:10;14.90;99.90
40454;DHT22;26160;51.858;4.398;2022-07-06T01:27:38;14.90;99.90
40454;DHT22;26160;51.858;4.398;2022-07-06T01:30:06;14.90;99.90
40454;DHT22;26160;51.858;4.398;2022-07-06T01:32:34;14.80;99.90
40454;DHT22;26160;51.858;4.398;2022-07-06T01:35:01;14.80;99.90
40454;DHT22;26160;51.858;4.398;2022-07-06T01:37:27;14.80;99.90
40454;DHT22;26160;51.858;4.398;2022-07-06T01:39:53;14.70;99.90
40454;DHT22;26160;51.858;4.398;2022-07-06T01:42:19;14.70;99.90
40454;DHT22;26160;51.858;4.398;2022-07-06T01:44:45;14.70;99.90
40454;DHT22;26160;51.858;4.398;2022-07-06T01:47:11;14.60;99.90
40454;DHT22;26160;51.858;4.398;2022-07-06T01:49:37;14.60;99.90
40454;DHT22;26160;51.858;4.398;2022-07-06T01:52:03;14.60;99.90
40454;DHT22;26160;51.858;4.398;2022-07-06T01:54:30;14.60;99.90
40454;DHT22;26160;51.858;4.398;2022-07-06T01:56:56;14.60;99.90
40454;DHT22;26160;51.858;4.398;2022-07-06T01:59:22;14.50;99.90
40454;DHT22;26160;51.858;4.398;2022-07-06T02:01:48;14.50;99.90
40454;DHT22;26160;51.858;4.398;2022-07-06T02:04:14;14.50;99.90
40454;DHT22;26160;51.858;4.398;2022-07-06T02:06:40;14.50;99.90
40454;DHT22;26160;51.858;4.398;2022-07-06T02:09:06;14.50;99.90
40454;DHT22;26160;51.858;4.398;2022-07-06T02:11:32;14.40;99.90
40454;DHT22;26160;51.858;4.398;2022-07-06T02:13:58;14.20;99.90
40454;DHT22;26160;51.858;4.398;2022-07-06T02:16:24;14.10;99.90
40454;DHT22;26160;51.858;4.398;2022-07-06T02:18:50;14.00;99.90
40454;DHT22;26160;51.858;4.398;2022-07-06T02:21:16;13.90;99.90
40454;DHT22;26160;51.858;4.398;2022-07-06T02:23:42;13.80;99.90
40454;DHT22;26160;51.858;4.398;2022-07-06T02:26:08;13.80;99.90
40454;DHT22;26160;51.858;4.398;2022-07-06T02:28:35;13.80;99.90
40454;DHT22;26160;51.858;4.398;2022-07-06T02:31:01;13.80;99.90
40454;DHT22;26160;51.858;4.398;2022-07-06T02:33:27;13.70;99.90
40454;DHT22;26160;51.858;4.398;2022-07-06T02:35:53;13.70;99.90
40454;DHT22;26160;51.858;4.398;2022-07-06T02:38:19;13.60;99.90
40454;DHT22;26160;51.858;4.398;2022-07-06T02:40:46;13.50;99.90
40454;DHT22;26160;51.858;4.398;2022-07-06T02:43:12;13.40;99.90
40454;DHT22;26160;51.858;4.398;2022-07-06T02:45:38;13.40;99.90
40454;DHT22;26160;51.858;4.398;2022-07-06T02:48:04;13.30;99.90
40454;DHT22;26160;51.858;4.398;2022-07-06T02:50:30;13.30;99.90
40454;DHT22;26160;51.858;4.398;2022-07-06T02:52:56;13.30;99.90
40454;DHT22;26160;51.858;4.398;2022-07-06T02:55:24;13.20;99.90
40454;DHT22;26160;51.858;4.398;2022-07-06T02:57:50;13.10;99.90
40454;DHT22;26160;51.858;4.398;2022-07-06T03:00:16;13.10;99.90
40454;DHT22;26160;51.858;4.398;2022-07-06T03:02:42;13.10;99.90
40454;DHT22;26160;51.858;4.398;2022-07-06T03:05:08;13.00;99.90
40454;DHT22;26160;51.858;4.398;2022-07-06T03:07:35;13.00;99.90
40454;DHT22;26160;51.858;4.398;2022-07-06T03:10:01;12.90;99.90
40454;DHT22;26160;51.858;4.398;2022-07-06T03:12:27;12.90;99.90
40454;DHT22;26160;51.858;4.398;2022-07-06T03:14:53;12.90;99.90
40454;DHT22;26160;51.858;4.398;2022-07-06T03:17:19;13.00;99.90
40454;DHT22;26160;51.858;4.398;2022-07-06T03:19:47;12.90;99.90
40454;DHT22;26160;51.858;4.398;2022-07-06T03:22:13;12.90;99.90
40454;DHT22;26160;51.858;4.398;2022-07-06T03:24:39;12.80;99.90
40454;DHT22;26160;51.858;4.398;2022-07-06T03:27:05;12.80;99.90
40454;DHT22;26160;51.858;4.398;2022-07-06T03:29:32;12.90;99.90
40454;DHT22;26160;51.858;4.398;2022-07-06T03:31:58;12.80;99.90
40454;DHT22;26160;51.858;4.398;2022-07-06T03:34:24;12.80;99.90
40454;DHT22;26160;51.858;4.398;2022-07-06T03:36:50;12.80;99.90
40454;DHT22;26160;51.858;4.398;2022-07-06T03:39:16;12.70;99.90
40454;DHT22;26160;51.858;4.398;2022-07-06T03:41:42;12.70;99.90
40454;DHT22;26160;51.858;4.398;2022-07-06T03:44:08;12.70;99.90
40454;DHT22;26160;51.858;4.398;2022-07-06T03:46:35;12.80;99.90
40454;DHT22;26160;51.858;4.398;2022-07-06T03:49:01;12.80;99.90
40454;DHT22;26160;51.858;4.398;2022-07-06T03:51:27;12.80;99.90
40454;DHT22;26160;51.858;4.398;2022-07-06T03:53:53;12.80;99.90
40454;DHT22;26160;51.858;4.398;2022-07-06T03:56:19;12.90;99.90
40454;DHT22;26160;51.858;4.398;2022-07-06T03:58:55;12.90;99.90
40454;DHT22;26160;51.858;4.398;2022-07-06T04:01:22;12.90;99.90
40454;DHT22;26160;51.858;4.398;2022-07-06T04:03:48;13.00;99.90
40454;DHT22;26160;51.858;4.398;2022-07-06T04:06:14;13.00;99.90
40454;DHT22;26160;51.858;4.398;2022-07-06T04:08:41;13.00;99.90
40454;DHT22;26160;51.858;4.398;2022-07-06T04:11:07;13.00;99.90
40454;DHT22;26160;51.858;4.398;2022-07-06T04:13:33;13.10;99.90
40454;DHT22;26160;51.858;4.398;2022-07-06T04:15:59;13.10;99.90
40454;DHT22;26160;51.858;4.398;2022-07-06T04:18:26;13.10;99.90
40454;DHT22;26160;51.858;4.398;2022-07-06T04:20:52;13.10;99.90
40454;DHT22;26160;51.858;4.398;2022-07-06T04:23:18;13.20;99.90
40454;DHT22;26160;51.858;4.398;2022-07-06T04:25:44;13.20;99.90
40454;DHT22;26160;51.858;4.398;2022-07-06T04:28:10;13.30;99.90
40454;DHT22;26160;51.858;4.398;2022-07-06T04:30:36;13.30;99.90
40454;DHT22;26160;51.858;4.398;2022-07-06T04:33:02;13.40;99.90
40454;DHT22;26160;51.858;4.398;2022-07-06T04:35:29;13.60;99.90
40454;DHT22;26160;51.858;4.398;2022-07-06T04:37:55;13.70;99.90
40454;DHT22;26160;51.858;4.398;2022-07-06T04:40:21;13.80;99.90
40454;DHT22;26160;51.858;4.398;2022-07-06T04:42:47;13.90;99.90
40454;DHT22;26160;51.858;4.398;2022-07-06T04:45:13;14.10;99.90
40454;DHT22;26160;51.858;4.398;2022-07-06T04:47:41;14.30;99.90
40454;DHT22;26160;51.858;4.398;2022-07-06T04:50:07;14.40;99.90
40454;DHT22;26160;51.858;4.398;2022-07-06T04:52:33;14.50;99.90
40454;DHT22;26160;51.858;4.398;2022-07-06T04:54:59;14.60;99.90
40454;DHT22;26160;51.858;4.398;2022-07-06T04:57:25;14.70;99.90
40454;DHT22;26160;51.858;4.398;2022-07-06T04:59:52;14.70;99.90
40454;DHT22;26160;51.858;4.398;2022-07-06T05:02:18;14.70;99.90
40454;DHT22;26160;51.858;4.398;2022-07-06T05:04:44;14.80;99.90
40454;DHT22;26160;51.858;4.398;2022-07-06T05:07:10;14.90;99.90
40454;DHT22;26160;51.858;4.398;2022-07-06T05:09:37;15.20;99.90
40454;DHT22;26160;51.858;4.398;2022-07-06T05:12:03;15.40;99.90
40454;DHT22;26160;51.858;4.398;2022-07-06T05:14:29;15.60;99.90
40454;DHT22;26160;51.858;4.398;2022-07-06T05:16:55;15.80;99.90
40454;DHT22;26160;51.858;4.398;2022-07-06T05:19:21;16.00;99.90
40454;DHT22;26160;51.858;4.398;2022-07-06T05:21:48;16.00;99.90
40454;DHT22;26160;51.858;4.398;2022-07-06T05:24:14;16.10;99.90
40454;DHT22;26160;51.858;4.398;2022-07-06T05:26:42;16.30;99.90
40454;DHT22;26160;51.858;4.398;2022-07-06T05:29:08;16.40;99.90
40454;DHT22;26160;51.858;4.398;2022-07-06T05:31:34;16.70;99.90
40454;DHT22;26160;51.858;4.398;2022-07-06T05:34:00;16.90;99.90
40454;DHT22;26160;51.858;4.398;2022-07-06T05:36:26;17.10;99.90
40454;DHT22;26160;51.858;4.398;2022-07-06T05:38:52;17.20;99.90
40454;DHT22;26160;51.858;4.398;2022-07-06T05:41:18;17.30;99.90
40454;DHT22;26160;51.858;4.398;2022-07-06T05:43:44;17.50;99.90
40454;DHT22;26160;51.858;4.398;2022-07-06T05:46:11;17.40;99.90
40454;DHT22;26160;51.858;4.398;2022-07-06T05:48:37;17.60;99.90
40454;DHT22;26160;51.858;4.398;2022-07-06T05:51:21;17.60;99.90
40454;DHT22;26160;51.858;4.398;2022-07-06T05:53:47;17.70;99.90
40454;DHT22;26160;51.858;4.398;2022-07-06T05:56:14;17.70;99.90
40454;DHT22;26160;51.858;4.398;2022-07-06T05:58:40;17.70;99.90
40454;DHT22;26160;51.858;4.398;2022-07-06T06:01:06;17.80;99.90
40454;DHT22;26160;51.858;4.398;2022-07-06T06:03:33;17.70;99.90
40454;DHT22;26160;51.858;4.398;2022-07-06T06:05:59;17.90;99.90
40454;DHT22;26160;51.858;4.398;2022-07-06T06:08:26;18.00;99.90
40454;DHT22;26160;51.858;4.398;2022-07-06T06:10:52;18.20;99.90
40454;DHT22;26160;51.858;4.398;2022-07-06T06:13:19;18.30;99.90
40454;DHT22;26160;51.858;4.398;2022-07-06T06:15:45;18.40;99.90
40454;DHT22;26160;51.858;4.398;2022-07-06T06:18:11;18.70;99.90
40454;DHT22;26160;51.858;4.398;2022-07-06T06:20:37;18.80;99.90
40454;DHT22;26160;51.858;4.398;2022-07-06T06:23:03;18.80;99.90
40454;DHT22;26160;51.858;4.398;2022-07-06T06:25:34;19.00;99.90
40454;DHT22;26160;51.858;4.398;2022-07-06T06:28:02;19.10;99.90
40454;DHT22;26160;51.858;4.398;2022-07-06T06:30:29;19.30;99.90
40454;DHT22;26160;51.858;4.398;2022-07-06T06:33:09;19.30;99.90
40454;DHT22;26160;51.858;4.398;2022-07-06T06:35:38;19.20;99.90
40454;DHT22;26160;51.858;4.398;2022-07-06T06:38:04;19.10;99.90
40454;DHT22;26160;51.858;4.398;2022-07-06T06:40:30;19.20;99.90
40454;DHT22;26160;51.858;4.398;2022-07-06T06:42:57;19.20;99.90
40454;DHT22;26160;51.858;4.398;2022-07-06T06:45:23;19.30;99.90
40454;DHT22;26160;51.858;4.398;2022-07-06T06:47:49;19.50;99.90
40454;DHT22;26160;51.858;4.398;2022-07-06T06:50:15;19.70;99.90
40454;DHT22;26160;51.858;4.398;2022-07-06T06:52:41;19.80;99.90
40454;DHT22;26160;51.858;4.398;2022-07-06T06:55:07;19.80;99.90
40454;DHT22;26160;51.858;4.398;2022-07-06T06:57:34;19.90;99.90
40454;DHT22;26160;51.858;4.398;2022-07-06T07:00:00;20.10;99.90
40454;DHT22;26160;51.858;4.398;2022-07-06T07:02:27;20.20;99.90
40454;DHT22;26160;51.858;4.398;2022-07-06T07:04:53;20.30;99.90
40454;DHT22;26160;51.858;4.398;2022-07-06T07:07:19;20.60;99.90
40454;DHT22;26160;51.858;4.398;2022-07-06T07:09:45;20.80;99.90
40454;DHT22;26160;51.858;4.398;2022-07-06T07:12:11;21.10;99.90
40454;DHT22;26160;51.858;4.398;2022-07-06T07:14:38;21.10;99.90
40454;DHT22;26160;51.858;4.398;2022-07-06T07:17:04;21.30;99.90
40454;DHT22;26160;51.858;4.398;2022-07-06T07:19:30;21.40;99.90
40454;DHT22;26160;51.858;4.398;2022-07-06T07:21:56;21.60;99.90
40454;DHT22;26160;51.858;4.398;2022-07-06T07:24:22;21.80;99.90
40454;DHT22;26160;51.858;4.398;2022-07-06T07:26:48;21.80;99.90
40454;DHT22;26160;51.858;4.398;2022-07-06T07:29:14;21.80;99.90
40454;DHT22;26160;51.858;4.398;2022-07-06T07:31:41;21.60;99.90
40454;DHT22;26160;51.858;4.398;2022-07-06T07:34:07;21.80;99.90
40454;DHT22;26160;51.858;4.398;2022-07-06T07:36:33;21.40;99.90
40454;DHT22;26160;51.858;4.398;2022-07-06T07:38:59;21.40;99.90
40454;DHT22;26160;51.858;4.398;2022-07-06T07:41:25;21.70;99.90
40454;DHT22;26160;51.858;4.398;2022-07-06T07:43:51;21.50;99.90
40454;DHT22;26160;51.858;4.398;2022-07-06T07:46:17;21.40;99.90
40454;DHT22;26160;51.858;4.398;2022-07-06T07:48:43;21.20;99.90
40454;DHT22;26160;51.858;4.398;2022-07-06T07:51:10;21.30;99.90
40454;DHT22;26160;51.858;4.398;2022-07-06T07:53:36;21.40;99.90
40454;DHT22;26160;51.858;4.398;2022-07-06T07:56:02;21.60;99.90
40454;DHT22;26160;51.858;4.398;2022-07-06T07:58:28;21.50;99.90
40454;DHT22;26160;51.858;4.398;2022-07-06T08:00:55;21.60;99.90
40454;DHT22;26160;51.858;4.398;2022-07-06T08:03:22;21.70;99.90
40454;DHT22;26160;51.858;4.398;2022-07-06T08:05:48;22.00;99.90
40454;DHT22;26160;51.858;4.398;2022-07-06T08:08:15;22.10;99.90
40454;DHT22;26160;51.858;4.398;2022-07-06T08:10:41;21.90;99.90
40454;DHT22;26160;51.858;4.398;2022-07-06T08:13:07;21.70;99.90
40454;DHT22;26160;51.858;4.398;2022-07-06T08:15:33;21.60;99.90
40454;DHT22;26160;51.858;4.398;2022-07-06T08:18:00;21.90;99.90
40454;DHT22;26160;51.858;4.398;2022-07-06T08:20:26;22.20;99.90
40454;DHT22;26160;51.858;4.398;2022-07-06T08:22:52;22.10;99.90
40454;DHT22;26160;51.858;4.398;2022-07-06T08:25:18;22.00;99.90
40454;DHT22;26160;51.858;4.398;2022-07-06T08:27:45;22.00;99.90
40454;DHT22;26160;51.858;4.398;2022-07-06T08:30:11;21.90;99.90
40454;DHT22;26160;51.858;4.398;2022-07-06T08:32:39;21.90;99.90
40454;DHT22;26160;51.858;4.398;2022-07-06T08:35:06;21.80;99.90
40454;DHT22;26160;51.858;4.398;2022-07-06T08:37:32;21.70;99.90
40454;DHT22;26160;51.858;4.398;2022-07-06T08:39:58;21.60;99.90
40454;DHT22;26160;51.858;4.398;2022-07-06T08:42:30;21.40;99.90
40454;DHT22;26160;51.858;4.398;2022-07-06T08:45:02;21.30;99.90
40454;DHT22;26160;51.858;4.398;2022-07-06T08:47:30;21.20;99.90
40454;DHT22;26160;51.858;4.398;2022-07-06T08:49:56;21.00;99.90
40454;DHT22;26160;51.858;4.398;2022-07-06T08:52:23;20.90;99.90
40454;DHT22;26160;51.858;4.398;2022-07-06T08:54:50;20.80;99.90
40454;DHT22;26160;51.858;4.398;2022-07-06T08:57:17;20.90;99.90
40454;DHT22;26160;51.858;4.398;2022-07-06T08:59:43;21.30;99.90
40454;DHT22;26160;51.858;4.398;2022-07-06T09:02:10;21.60;99.90
40454;DHT22;26160;51.858;4.398;2022-07-06T09:04:37;21.70;99.90
40454;DHT22;26160;51.858;4.398;2022-07-06T09:07:04;21.90;99.90
40454;DHT22;26160;51.858;4.398;2022-07-06T09:09:30;22.00;99.90
40454;DHT22;26160;51.858;4.398;2022-07-06T09:11:57;22.00;99.90
40454;DHT22;26160;51.858;4.398;2022-07-06T09:14:24;21.60;99.90
40454;DHT22;26160;51.858;4.398;2022-07-06T09:17:05;21.40;99.90
40454;DHT22;26160;51.858;4.398;2022-07-06T09:19:34;21.40;99.90
40454;DHT22;26160;51.858;4.398;2022-07-06T09:22:01;21.50;99.90
40454;DHT22;26160;51.858;4.398;2022-07-06T09:24:27;21.60;99.90
40454;DHT22;26160;51.858;4.398;2022-07-06T09:26:58;21.80;99.90
40454;DHT22;26160;51.858;4.398;2022-07-06T09:29:28;22.10;99.90
40454;DHT22;26160;51.858;4.398;2022-07-06T09:31:56;22.20;99.90
40454;DHT22;26160;51.858;4.398;2022-07-06T09:34:25;22.20;99.90
40454;DHT22;26160;51.858;4.398;2022-07-06T09:37:06;22.10;99.90
40454;DHT22;26160;51.858;4.398;2022-07-06T09:39:32;22.20;99.90
40454;DHT22;26160;51.858;4.398;2022-07-06T09:42:00;22.20;99.90
40454;DHT22;26160;51.858;4.398;2022-07-06T09:44:27;21.80;99.90
40454;DHT22;26160;51.858;4.398;2022-07-06T09:46:56;21.90;99.90
40454;DHT22;26160;51.858;4.398;2022-07-06T09:49:23;22.10;99.90
40454;DHT22;26160;51.858;4.398;2022-07-06T09:51:52;22.10;99.90
40454;DHT22;26160;51.858;4.398;2022-07-06T09:54:19;22.20;99.90
40454;DHT22;26160;51.858;4.398;2022-07-06T09:56:47;22.10;99.90
40454;DHT22;26160;51.858;4.398;2022-07-06T09:59:17;22.40;99.90
40454;DHT22;26160;51.858;4.398;2022-07-06T10:01:44;22.50;99.90
40454;DHT22;26160;51.858;4.398;2022-07-06T10:04:14;22.50;99.90
40454;DHT22;26160;51.858;4.398;2022-07-06T10:06:41;22.70;99.90
40454;DHT22;26160;51.858;4.398;2022-07-06T10:09:09;22.90;99.90
40454;DHT22;26160;51.858;4.398;2022-07-06T10:11:54;23.20;99.90
40454;DHT22;26160;51.858;4.398;2022-07-06T10:14:22;22.90;99.90
40454;DHT22;26160;51.858;4.398;2022-07-06T10:16:49;23.10;99.90
40454;DHT22;26160;51.858;4.398;2022-07-06T10:19:18;23.50;99.90
40454;DHT22;26160;51.858;4.398;2022-07-06T10:21:45;23.60;99.90
40454;DHT22;26160;51.858;4.398;2022-07-06T10:24:12;23.40;99.90
40454;DHT22;26160;51.858;4.398;2022-07-06T10:26:39;23.50;99.90
40454;DHT22;26160;51.858;4.398;2022-07-06T10:29:06;23.40;99.90
40454;DHT22;26160;51.858;4.398;2022-07-06T10:31:36;23.40;99.90
40454;DHT22;26160;51.858;4.398;2022-07-06T10:34:07;23.40;99.90
40454;DHT22;26160;51.858;4.398;2022-07-06T10:36:39;23.30;99.90
40454;DHT22;26160;51.858;4.398;2022-07-06T10:39:06;23.60;99.90
40454;DHT22;26160;51.858;4.398;2022-07-06T10:41:51;23.60;99.90
40454;DHT22;26160;51.858;4.398;2022-07-06T10:44:22;23.40;99.90
40454;DHT22;26160;51.858;4.398;2022-07-06T10:46:56;23.50;99.90
40454;DHT22;26160;51.858;4.398;2022-07-06T10:49:25;23.40;99.90
40454;DHT22;26160;51.858;4.398;2022-07-06T10:51:52;23.20;99.90
40454;DHT22;26160;51.858;4.398;2022-07-06T10:54:19;23.40;99.90
40454;DHT22;26160;51.858;4.398;2022-07-06T10:59:17;24.00;99.90
40454;DHT22;26160;51.858;4.398;2022-07-06T11:02:16;23.90;99.90
40454;DHT22;26160;51.858;4.398;2022-07-06T11:04:44;23.70;99.90
40454;DHT22;26160;51.858;4.398;2022-07-06T11:07:13;23.70;99.90
40454;DHT22;26160;51.858;4.398;2022-07-06T11:09:40;23.90;99.90
40454;DHT22;26160;51.858;4.398;2022-07-06T11:12:17;24.50;99.90
40454;DHT22;26160;51.858;4.398;2022-07-06T11:14:50;24.80;99.90
40454;DHT22;26160;51.858;4.398;2022-07-06T11:17:17;24.90;99.90
40454;DHT22;26160;51.858;4.398;2022-07-06T11:19:54;24.90;99.90
40454;DHT22;26160;51.858;4.398;2022-07-06T11:22:21;24.40;99.90
40454;DHT22;26160;51.858;4.398;2022-07-06T11:24:47;24.20;99.90
40454;DHT22;26160;51.858;4.398;2022-07-06T11:27:13;24.30;99.90
40454;DHT22;26160;51.858;4.398;2022-07-06T11:29:40;24.10;99.90
40454;DHT22;26160;51.858;4.398;2022-07-06T11:32:08;24.30;99.90
40454;DHT22;26160;51.858;4.398;2022-07-06T11:34:40;24.50;99.90
40454;DHT22;26160;51.858;4.398;2022-07-06T11:37:16;24.80;99.90
40454;DHT22;26160;51.858;4.398;2022-07-06T11:39:45;24.60;99.90
40454;DHT22;26160;51.858;4.398;2022-07-06T11:42:13;24.40;99.90
40454;DHT22;26160;51.858;4.398;2022-07-06T11:44:40;24.30;99.90
40454;DHT22;26160;51.858;4.398;2022-07-06T11:47:08;24.40;99.90
40454;DHT22;26160;51.858;4.398;2022-07-06T11:49:36;24.90;99.90
40454;DHT22;26160;51.858;4.398;2022-07-06T11:52:10;25.30;99.90
40454;DHT22;26160;51.858;4.398;2022-07-06T11:54:37;25.50;99.90
40454;DHT22;26160;51.858;4.398;2022-07-06T11:57:04;25.60;99.90
40454;DHT22;26160;51.858;4.398;2022-07-06T11:59:31;25.60;99.90
40454;DHT22;26160;51.858;4.398;2022-07-06T12:02:02;24.60;99.90
40454;DHT22;26160;51.858;4.398;2022-07-06T12:04:36;24.60;99.90
40454;DHT22;26160;51.858;4.398;2022-07-06T12:07:05;25.20;99.90
40454;DHT22;26160;51.858;4.398;2022-07-06T12:09:35;25.20;99.90
40454;DHT22;26160;51.858;4.398;2022-07-06T12:12:02;25.00;99.90
40454;DHT22;26160;51.858;4.398;2022-07-06T12:14:29;24.90;99.90
40454;DHT22;26160;51.858;4.398;2022-07-06T12:16:56;24.60;99.90
40454;DHT22;26160;51.858;4.398;2022-07-06T12:19:28;24.00;99.90
40454;DHT22;26160;51.858;4.398;2022-07-06T12:21:55;23.80;99.90
40454;DHT22;26160;51.858;4.398;2022-07-06T12:24:25;23.80;99.90
40454;DHT22;26160;51.858;4.398;2022-07-06T12:26:53;23.60;99.90
40454;DHT22;26160;51.858;4.398;2022-07-06T12:29:21;23.20;99.90
40454;DHT22;26160;51.858;4.398;2022-07-06T12:31:49;22.90;99.90
40454;DHT22;26160;51.858;4.398;2022-07-06T12:34:29;23.00;99.90
40454;DHT22;26160;51.858;4.398;2022-07-06T12:37:07;22.80;99.90
40454;DHT22;26160;51.858;4.398;2022-07-06T12:39:42;22.90;99.90
40454;DHT22;26160;51.858;4.398;2022-07-06T12:42:08;22.70;99.90
40454;DHT22;26160;51.858;4.398;2022-07-06T12:44:43;22.70;99.90
40454;DHT22;26160;51.858;4.398;2022-07-06T12:47:10;22.70;99.90
40454;DHT22;26160;51.858;4.398;2022-07-06T12:49:38;22.60;99.90
40454;DHT22;26160;51.858;4.398;2022-07-06T12:52:10;22.70;99.90
40454;DHT22;26160;51.858;4.398;2022-07-06T12:54:44;22.70;99.90
40454;DHT22;26160;51.858;4.398;2022-07-06T12:57:14;22.80;99.90
40454;DHT22;26160;51.858;4.398;2022-07-06T13:02:16;22.90;99.90
40454;DHT22;26160;51.858;4.398;2022-07-06T13:04:42;23.10;99.90
40454;DHT22;26160;51.858;4.398;2022-07-06T13:07:18;23.20;99.90
40454;DHT22;26160;51.858;4.398;2022-07-06T13:09:47;23.30;99.90
40454;DHT22;26160;51.858;4.398;2022-07-06T13:12:13;23.20;99.90
40454;DHT22;26160;51.858;4.398;2022-07-06T13:14:39;22.90;99.90
40454;DHT22;26160;51.858;4.398;2022-07-06T13:17:06;22.80;99.90
40454;DHT22;26160;51.858;4.398;2022-07-06T13:19:33;22.80;99.90
40454;DHT22;26160;51.858;4.398;2022-07-06T13:21:59;23.00;99.90
40454;DHT22;26160;51.858;4.398;2022-07-06T13:24:25;23.00;99.90
40454;DHT22;26160;51.858;4.398;2022-07-06T13:26:55;23.00;99.90
40454;DHT22;26160;51.858;4.398;2022-07-06T13:29:21;22.90;99.90
40454;DHT22;26160;51.858;4.398;2022-07-06T13:31:47;22.80;99.90
40454;DHT22;26160;51.858;4.398;2022-07-06T13:34:13;22.80;99.90
40454;DHT22;26160;51.858;4.398;2022-07-06T13:36:40;22.80;99.90
40454;DHT22;26160;51.858;4.398;2022-07-06T13:39:06;22.80;99.90
40454;DHT22;26160;51.858;4.398;2022-07-06T13:41:33;22.90;99.90
40454;DHT22;26160;51.858;4.398;2022-07-06T13:43:59;22.70;99.90
40454;DHT22;26160;51.858;4.398;2022-07-06T13:46:30;22.60;99.90
40454;DHT22;26160;51.858;4.398;2022-07-06T13:48:57;22.70;99.90
40454;DHT22;26160;51.858;4.398;2022-07-06T13:51:24;22.90;99.90
40454;DHT22;26160;51.858;4.398;2022-07-06T13:53:51;22.80;99.90
40454;DHT22;26160;51.858;4.398;2022-07-06T13:56:17;22.80;99.90
40454;DHT22;26160;51.858;4.398;2022-07-06T13:58:43;22.70;99.90
40454;DHT22;26160;51.858;4.398;2022-07-06T14:01:10;22.50;99.90
40454;DHT22;26160;51.858;4.398;2022-07-06T14:03:36;22.50;99.90
40454;DHT22;26160;51.858;4.398;2022-07-06T14:06:05;22.20;99.90
40454;DHT22;26160;51.858;4.398;2022-07-06T14:08:34;22.00;99.90
40454;DHT22;26160;51.858;4.398;2022-07-06T14:11:02;22.00;99.90
40454;DHT22;26160;51.858;4.398;2022-07-06T14:13:30;22.00;99.90
40454;DHT22;26160;51.858;4.398;2022-07-06T14:15:56;21.80;99.90
40454;DHT22;26160;51.858;4.398;2022-07-06T14:18:23;21.90;99.90
40454;DHT22;26160;51.858;4.398;2022-07-06T14:20:50;22.00;99.90
40454;DHT22;26160;51.858;4.398;2022-07-06T14:23:17;22.10;99.90
40454;DHT22;26160;51.858;4.398;2022-07-06T14:25:43;22.10;99.90
40454;DHT22;26160;51.858;4.398;2022-07-06T14:28:10;22.30;99.90
40454;DHT22;26160;51.858;4.398;2022-07-06T14:30:39;22.20;99.90
40454;DHT22;26160;51.858;4.398;2022-07-06T14:33:08;22.00;99.90
40454;DHT22;26160;51.858;4.398;2022-07-06T14:35:45;21.90;99.90
40454;DHT22;26160;51.858;4.398;2022-07-06T14:38:18;21.90;99.90
40454;DHT22;26160;51.858;4.398;2022-07-06T14:40:45;22.10;99.90
40454;DHT22;26160;51.858;4.398;2022-07-06T14:43:11;22.30;99.90
40454;DHT22;26160;51.858;4.398;2022-07-06T14:45:37;22.40;99.90
40454;DHT22;26160;51.858;4.398;2022-07-06T14:48:04;22.30;99.90
40454;DHT22;26160;51.858;4.398;2022-07-06T14:50:31;22.20;99.90
40454;DHT22;26160;51.858;4.398;2022-07-06T14:52:57;22.00;99.90
40454;DHT22;26160;51.858;4.398;2022-07-06T14:55:24;22.00;99.90
40454;DHT22;26160;51.858;4.398;2022-07-06T14:57:50;22.30;99.90
40454;DHT22;26160;51.858;4.398;2022-07-06T15:00:16;22.60;99.90
40454;DHT22;26160;51.858;4.398;2022-07-06T15:02:42;22.40;99.90
40454;DHT22;26160;51.858;4.398;2022-07-06T15:05:10;22.40;99.90
40454;DHT22;26160;51.858;4.398;2022-07-06T15:07:37;22.30;99.90
40454;DHT22;26160;51.858;4.398;2022-07-06T15:10:04;22.60;99.90
40454;DHT22;26160;51.858;4.398;2022-07-06T15:12:31;22.60;99.90
40454;DHT22;26160;51.858;4.398;2022-07-06T15:14:57;22.70;99.90
40454;DHT22;26160;51.858;4.398;2022-07-06T15:17:23;22.70;99.90
40454;DHT22;26160;51.858;4.398;2022-07-06T15:19:49;22.70;99.90
40454;DHT22;26160;51.858;4.398;2022-07-06T15:22:15;22.80;99.90
40454;DHT22;26160;51.858;4.398;2022-07-06T15:24:41;22.80;99.90
40454;DHT22;26160;51.858;4.398;2022-07-06T15:27:08;22.70;99.90
40454;DHT22;26160;51.858;4.398;2022-07-06T15:29:34;22.60;99.90
40454;DHT22;26160;51.858;4.398;2022-07-06T15:32:01;22.50;99.90
40454;DHT22;26160;51.858;4.398;2022-07-06T15:34:27;22.20;99.90
40454;DHT22;26160;51.858;4.398;2022-07-06T15:36:54;22.20;99.90